sensor_id;sensor_type;location;lat;lon;timestamp;P1;durP1;ratioP1;P2;durP2;ratioP2
7957;SDS011;4024;52.172;5.378;2023-08-06T00:00:13;9.43;;;8.17;;
7957;SDS011;4024;52.172;5.378;2023-08-06T00:02:38;9.33;;;8.43;;
7957;SDS011;4024;52.172;5.378;2023-08-06T00:05:04;8.93;;;8.00;;
7957;SDS011;4024;52.172;5.378;2023-08-06T00:07:30;10.37;;;8.73;;
7957;SDS011;4024;52.172;5.378;2023-08-06T00:09:56;9.57;;;8.57;;
7957;SDS011;4024;52.172;5.378;2023-08-06T00:12:21;12.80;;;8.93;;
7957;SDS011;4024;52.172;5.378;2023-08-06T00:14:51;11.53;;;9.10;;
7957;SDS011;4024;52.172;5.378;2023-08-06T00:17:17;12.13;;;9.37;;
7957;SDS011;4024;52.172;5.378;2023-08-06T00:19:44;10.03;;;8.60;;
7957;SDS011;4024;52.172;5.378;2023-08-06T00:22:09;10.97;;;8.60;;
7957;SDS011;4024;52.172;5.378;2023-08-06T00:24:35;10.23;;;8.33;;
7957;SDS011;4024;52.172;5.378;2023-08-06T00:27:01;11.50;;;9.17;;
7957;SDS011;4024;52.172;5.378;2023-08-06T00:29:27;10.37;;;8.57;;
7957;SDS011;4024;52.172;5.378;2023-08-06T00:31:53;11.40;;;9.03;;
7957;SDS011;4024;52.172;5.378;2023-08-06T00:34:18;11.60;;;9.20;;
7957;SDS011;4024;52.172;5.378;2023-08-06T00:36:44;9.47;;;8.50;;
7957;SDS011;4024;52.172;5.378;2023-08-06T00:39:09;11.50;;;8.53;;
7957;SDS011;4024;52.172;5.378;2023-08-06T00:41:35;8.77;;;7.83;;
7957;SDS011;4024;52.172;5.378;2023-08-06T00:44:01;11.53;;;8.20;;
7957;SDS011;4024;52.172;5.378;2023-08-06T00:46:27;9.83;;;8.63;;
7957;SDS011;4024;52.172;5.378;2023-08-06T00:48:52;9.57;;;7.97;;
7957;SDS011;4024;52.172;5.378;2023-08-06T00:51:18;10.80;;;8.30;;
7957;SDS011;4024;52.172;5.378;2023-08-06T00:53:45;9.50;;;8.50;;
7957;SDS011;4024;52.172;5.378;2023-08-06T00:56:11;14.43;;;8.23;;
7957;SDS011;4024;52.172;5.378;2023-08-06T00:58:37;9.97;;;8.27;;
7957;SDS011;4024;52.172;5.378;2023-08-06T01:01:04;9.43;;;7.87;;
7957;SDS011;4024;52.172;5.378;2023-08-06T01:03:29;10.53;;;8.27;;
7957;SDS011;4024;52.172;5.378;2023-08-06T01:05:55;11.57;;;8.53;;
7957;SDS011;4024;52.172;5.378;2023-08-06T01:09:07;9.67;;;8.67;;
7957;SDS011;4024;52.172;5.378;2023-08-06T01:11:26;8.97;;;7.93;;
7957;SDS011;4024;52.172;5.378;2023-08-06T01:16:40;8.80;;;7.93;;
7957;SDS011;4024;52.172;5.378;2023-08-06T01:19:15;13.50;;;8.70;;
7957;SDS011;4024;52.172;5.378;2023-08-06T01:21:44;10.27;;;9.17;;
7957;SDS011;4024;52.172;5.378;2023-08-06T01:24:10;10.13;;;9.13;;
7957;SDS011;4024;52.172;5.378;2023-08-06T01:26:38;9.97;;;8.97;;
7957;SDS011;4024;52.172;5.378;2023-08-06T01:29:24;11.47;;;9.73;;
7957;SDS011;4024;52.172;5.378;2023-08-06T01:31:55;10.77;;;9.40;;
7957;SDS011;4024;52.172;5.378;2023-08-06T01:34:24;12.47;;;10.23;;
7957;SDS011;4024;52.172;5.378;2023-08-06T01:36:52;12.70;;;9.07;;
7957;SDS011;4024;52.172;5.378;2023-08-06T01:39:18;11.57;;;9.27;;
7957;SDS011;4024;52.172;5.378;2023-08-06T01:41:50;12.07;;;9.50;;
7957;SDS011;4024;52.172;5.378;2023-08-06T01:44:16;10.77;;;9.67;;
7957;SDS011;4024;52.172;5.378;2023-08-06T01:46:41;11.20;;;9.83;;
7957;SDS011;4024;52.172;5.378;2023-08-06T01:49:07;12.80;;;9.50;;
7957;SDS011;4024;52.172;5.378;2023-08-06T01:51:33;12.47;;;9.83;;
7957;SDS011;4024;52.172;5.378;2023-08-06T01:53:58;14.83;;;10.33;;
7957;SDS011;4024;52.172;5.378;2023-08-06T01:56:24;12.33;;;11.00;;
7957;SDS011;4024;52.172;5.378;2023-08-06T01:58:50;11.90;;;10.23;;
7957;SDS011;4024;52.172;5.378;2023-08-06T02:01:15;13.27;;;10.53;;
7957;SDS011;4024;52.172;5.378;2023-08-06T02:03:41;11.37;;;10.17;;
7957;SDS011;4024;52.172;5.378;2023-08-06T02:06:06;13.33;;;10.87;;
7957;SDS011;4024;52.172;5.378;2023-08-06T02:08:33;14.47;;;10.53;;
7957;SDS011;4024;52.172;5.378;2023-08-06T02:10:58;11.80;;;10.60;;
7957;SDS011;4024;52.172;5.378;2023-08-06T02:13:24;12.27;;;10.90;;
7957;SDS011;4024;52.172;5.378;2023-08-06T02:15:50;13.63;;;11.33;;
7957;SDS011;4024;52.172;5.378;2023-08-06T02:18:15;15.70;;;11.63;;
7957;SDS011;4024;52.172;5.378;2023-08-06T02:20:42;12.23;;;10.63;;
7957;SDS011;4024;52.172;5.378;2023-08-06T02:23:08;12.90;;;11.47;;
7957;SDS011;4024;52.172;5.378;2023-08-06T02:25:34;13.63;;;11.83;;
7957;SDS011;4024;52.172;5.378;2023-08-06T02:28:00;14.63;;;11.30;;
7957;SDS011;4024;52.172;5.378;2023-08-06T02:30:25;13.00;;;11.43;;
7957;SDS011;4024;52.172;5.378;2023-08-06T02:32:53;12.20;;;10.40;;
7957;SDS011;4024;52.172;5.378;2023-08-06T02:35:18;13.50;;;12.10;;
7957;SDS011;4024;52.172;5.378;2023-08-06T02:37:44;13.50;;;11.37;;
7957;SDS011;4024;52.172;5.378;2023-08-06T02:40:10;11.83;;;10.60;;
7957;SDS011;4024;52.172;5.378;2023-08-06T02:42:36;14.17;;;11.47;;
7957;SDS011;4024;52.172;5.378;2023-08-06T02:45:02;13.87;;;11.47;;
7957;SDS011;4024;52.172;5.378;2023-08-06T02:47:28;14.83;;;12.87;;
7957;SDS011;4024;52.172;5.378;2023-08-06T02:49:54;12.83;;;11.40;;
7957;SDS011;4024;52.172;5.378;2023-08-06T02:52:19;11.53;;;9.80;;
7957;SDS011;4024;52.172;5.378;2023-08-06T02:54:45;12.70;;;11.40;;
7957;SDS011;4024;52.172;5.378;2023-08-06T02:57:10;13.93;;;12.37;;
7957;SDS011;4024;52.172;5.378;2023-08-06T02:59:36;13.13;;;11.80;;
7957;SDS011;4024;52.172;5.378;2023-08-06T03:02:03;13.03;;;11.33;;
7957;SDS011;4024;52.172;5.378;2023-08-06T03:04:28;11.33;;;10.23;;
7957;SDS011;4024;52.172;5.378;2023-08-06T03:06:55;10.87;;;9.77;;
7957;SDS011;4024;52.172;5.378;2023-08-06T03:09:20;11.17;;;9.93;;
7957;SDS011;4024;52.172;5.378;2023-08-06T03:11:46;9.20;;;8.33;;
7957;SDS011;4024;52.172;5.378;2023-08-06T03:14:12;9.47;;;8.57;;
7957;SDS011;4024;52.172;5.378;2023-08-06T03:16:37;10.13;;;9.20;;
7957;SDS011;4024;52.172;5.378;2023-08-06T03:19:03;10.70;;;9.50;;
7957;SDS011;4024;52.172;5.378;2023-08-06T03:21:28;9.03;;;8.20;;
7957;SDS011;4024;52.172;5.378;2023-08-06T03:23:54;9.30;;;8.50;;
7957;SDS011;4024;52.172;5.378;2023-08-06T03:26:19;9.70;;;8.37;;
7957;SDS011;4024;52.172;5.378;2023-08-06T03:28:45;9.60;;;8.60;;
7957;SDS011;4024;52.172;5.378;2023-08-06T03:31:10;9.23;;;8.23;;
7957;SDS011;4024;52.172;5.378;2023-08-06T03:33:37;11.20;;;9.10;;
7957;SDS011;4024;52.172;5.378;2023-08-06T03:36:03;8.43;;;7.60;;
7957;SDS011;4024;52.172;5.378;2023-08-06T03:38:28;8.03;;;7.30;;
7957;SDS011;4024;52.172;5.378;2023-08-06T03:40:54;8.17;;;7.47;;
7957;SDS011;4024;52.172;5.378;2023-08-06T03:43:19;8.80;;;7.33;;
7957;SDS011;4024;52.172;5.378;2023-08-06T03:45:45;7.20;;;6.50;;
7957;SDS011;4024;52.172;5.378;2023-08-06T03:48:10;7.53;;;5.60;;
7957;SDS011;4024;52.172;5.378;2023-08-06T03:50:36;7.33;;;5.90;;
7957;SDS011;4024;52.172;5.378;2023-08-06T03:53:03;7.20;;;6.60;;
7957;SDS011;4024;52.172;5.378;2023-08-06T03:55:28;9.57;;;7.97;;
7957;SDS011;4024;52.172;5.378;2023-08-06T03:57:54;9.43;;;7.90;;
7957;SDS011;4024;52.172;5.378;2023-08-06T04:00:19;7.20;;;6.47;;
7957;SDS011;4024;52.172;5.378;2023-08-06T04:02:45;9.27;;;8.30;;
7957;SDS011;4024;52.172;5.378;2023-08-06T04:05:11;10.80;;;9.70;;
7957;SDS011;4024;52.172;5.378;2023-08-06T04:07:37;10.10;;;9.07;;
7957;SDS011;4024;52.172;5.378;2023-08-06T04:10:03;9.33;;;8.43;;
7957;SDS011;4024;52.172;5.378;2023-08-06T04:12:30;10.10;;;9.00;;
7957;SDS011;4024;52.172;5.378;2023-08-06T04:14:57;11.97;;;10.20;;
7957;SDS011;4024;52.172;5.378;2023-08-06T04:17:23;10.87;;;9.77;;
7957;SDS011;4024;52.172;5.378;2023-08-06T04:19:52;11.40;;;10.30;;
7957;SDS011;4024;52.172;5.378;2023-08-06T04:22:19;11.73;;;10.63;;
7957;SDS011;4024;52.172;5.378;2023-08-06T04:24:46;14.63;;;11.87;;
7957;SDS011;4024;52.172;5.378;2023-08-06T04:27:12;14.80;;;13.30;;
7957;SDS011;4024;52.172;5.378;2023-08-06T04:29:39;13.07;;;11.67;;
7957;SDS011;4024;52.172;5.378;2023-08-06T04:32:05;14.00;;;12.60;;
7957;SDS011;4024;52.172;5.378;2023-08-06T04:34:33;14.87;;;13.37;;
7957;SDS011;4024;52.172;5.378;2023-08-06T04:37:00;15.40;;;13.80;;
7957;SDS011;4024;52.172;5.378;2023-08-06T04:39:25;14.77;;;13.17;;
7957;SDS011;4024;52.172;5.378;2023-08-06T04:41:51;16.07;;;14.33;;
7957;SDS011;4024;52.172;5.378;2023-08-06T04:44:17;16.30;;;14.57;;
7957;SDS011;4024;52.172;5.378;2023-08-06T04:46:42;16.23;;;14.47;;
7957;SDS011;4024;52.172;5.378;2023-08-06T04:49:08;18.50;;;16.47;;
7957;SDS011;4024;52.172;5.378;2023-08-06T04:51:33;18.20;;;16.20;;
7957;SDS011;4024;52.172;5.378;2023-08-06T04:53:59;17.03;;;14.83;;
7957;SDS011;4024;52.172;5.378;2023-08-06T04:56:25;17.60;;;15.70;;
7957;SDS011;4024;52.172;5.378;2023-08-06T04:58:50;18.30;;;16.33;;
7957;SDS011;4024;52.172;5.378;2023-08-06T05:01:16;17.23;;;15.50;;
7957;SDS011;4024;52.172;5.378;2023-08-06T05:03:42;18.33;;;16.27;;
7957;SDS011;4024;52.172;5.378;2023-08-06T05:06:08;17.93;;;16.03;;
7957;SDS011;4024;52.172;5.378;2023-08-06T05:08:33;18.97;;;16.13;;
7957;SDS011;4024;52.172;5.378;2023-08-06T05:11:00;17.17;;;15.37;;
7957;SDS011;4024;52.172;5.378;2023-08-06T05:13:26;17.67;;;15.37;;
7957;SDS011;4024;52.172;5.378;2023-08-06T05:15:53;18.07;;;16.13;;
7957;SDS011;4024;52.172;5.378;2023-08-06T05:18:19;17.77;;;15.87;;
7957;SDS011;4024;52.172;5.378;2023-08-06T05:20:44;17.73;;;15.93;;
7957;SDS011;4024;52.172;5.378;2023-08-06T05:23:10;18.63;;;16.47;;
7957;SDS011;4024;52.172;5.378;2023-08-06T05:25:36;16.77;;;15.00;;
7957;SDS011;4024;52.172;5.378;2023-08-06T05:28:03;17.83;;;15.93;;
7957;SDS011;4024;52.172;5.378;2023-08-06T05:30:29;19.07;;;16.23;;
7957;SDS011;4024;52.172;5.378;2023-08-06T05:32:55;18.60;;;16.60;;
7957;SDS011;4024;52.172;5.378;2023-08-06T05:35:21;18.37;;;16.17;;
7957;SDS011;4024;52.172;5.378;2023-08-06T05:37:48;18.77;;;16.77;;
7957;SDS011;4024;52.172;5.378;2023-08-06T05:40:15;19.20;;;17.17;;
7957;SDS011;4024;52.172;5.378;2023-08-06T05:42:40;19.23;;;16.57;;
7957;SDS011;4024;52.172;5.378;2023-08-06T05:45:07;18.17;;;16.23;;
7957;SDS011;4024;52.172;5.378;2023-08-06T05:47:33;17.50;;;15.60;;
7957;SDS011;4024;52.172;5.378;2023-08-06T05:49:58;19.47;;;17.20;;
7957;SDS011;4024;52.172;5.378;2023-08-06T05:52:24;18.50;;;16.50;;
7957;SDS011;4024;52.172;5.378;2023-08-06T05:54:50;18.83;;;16.93;;
7957;SDS011;4024;52.172;5.378;2023-08-06T05:57:16;18.40;;;16.47;;
7957;SDS011;4024;52.172;5.378;2023-08-06T05:59:42;19.33;;;17.33;;
7957;SDS011;4024;52.172;5.378;2023-08-06T06:02:07;17.37;;;15.60;;
7957;SDS011;4024;52.172;5.378;2023-08-06T06:04:33;19.03;;;17.00;;
7957;SDS011;4024;52.172;5.378;2023-08-06T06:07:00;18.93;;;16.77;;
7957;SDS011;4024;52.172;5.378;2023-08-06T06:09:25;18.43;;;16.53;;
7957;SDS011;4024;52.172;5.378;2023-08-06T06:11:51;18.43;;;15.97;;
7957;SDS011;4024;52.172;5.378;2023-08-06T06:14:19;17.43;;;15.63;;
7957;SDS011;4024;52.172;5.378;2023-08-06T06:16:45;18.33;;;16.43;;
7957;SDS011;4024;52.172;5.378;2023-08-06T06:19:11;16.27;;;14.60;;
7957;SDS011;4024;52.172;5.378;2023-08-06T06:21:37;17.93;;;16.03;;
7957;SDS011;4024;52.172;5.378;2023-08-06T06:24:04;17.27;;;15.47;;
7957;SDS011;4024;52.172;5.378;2023-08-06T06:26:30;17.30;;;15.50;;
7957;SDS011;4024;52.172;5.378;2023-08-06T06:28:55;18.33;;;16.53;;
7957;SDS011;4024;52.172;5.378;2023-08-06T06:31:21;17.67;;;15.87;;
7957;SDS011;4024;52.172;5.378;2023-08-06T06:33:47;17.47;;;15.63;;
7957;SDS011;4024;52.172;5.378;2023-08-06T06:36:12;17.10;;;15.30;;
7957;SDS011;4024;52.172;5.378;2023-08-06T06:38:38;18.07;;;16.23;;
7957;SDS011;4024;52.172;5.378;2023-08-06T06:41:04;17.70;;;15.80;;
7957;SDS011;4024;52.172;5.378;2023-08-06T06:43:30;20.67;;;16.53;;
7957;SDS011;4024;52.172;5.378;2023-08-06T06:45:56;16.97;;;15.27;;
7957;SDS011;4024;52.172;5.378;2023-08-06T06:48:23;17.03;;;15.33;;
7957;SDS011;4024;52.172;5.378;2023-08-06T06:50:50;17.97;;;16.07;;
7957;SDS011;4024;52.172;5.378;2023-08-06T06:53:16;17.77;;;15.87;;
7957;SDS011;4024;52.172;5.378;2023-08-06T06:55:42;18.33;;;16.47;;
7957;SDS011;4024;52.172;5.378;2023-08-06T06:58:08;19.13;;;16.60;;
7957;SDS011;4024;52.172;5.378;2023-08-06T07:00:37;19.93;;;17.83;;
7957;SDS011;4024;52.172;5.378;2023-08-06T07:03:03;19.00;;;17.10;;
7957;SDS011;4024;52.172;5.378;2023-08-06T07:05:28;19.33;;;17.37;;
7957;SDS011;4024;52.172;5.378;2023-08-06T07:07:54;19.27;;;17.17;;
7957;SDS011;4024;52.172;5.378;2023-08-06T07:10:20;18.57;;;16.67;;
7957;SDS011;4024;52.172;5.378;2023-08-06T07:12:45;19.67;;;17.60;;
7957;SDS011;4024;52.172;5.378;2023-08-06T07:15:11;19.87;;;17.87;;
7957;SDS011;4024;52.172;5.378;2023-08-06T07:17:37;20.33;;;17.13;;
7957;SDS011;4024;52.172;5.378;2023-08-06T07:20:03;19.13;;;17.07;;
7957;SDS011;4024;52.172;5.378;2023-08-06T07:22:29;19.60;;;16.40;;
7957;SDS011;4024;52.172;5.378;2023-08-06T07:24:55;19.63;;;17.53;;
7957;SDS011;4024;52.172;5.378;2023-08-06T07:27:20;18.43;;;16.17;;
7957;SDS011;4024;52.172;5.378;2023-08-06T07:29:46;18.53;;;16.57;;
7957;SDS011;4024;52.172;5.378;2023-08-06T07:32:14;18.87;;;16.83;;
7957;SDS011;4024;52.172;5.378;2023-08-06T07:34:39;23.40;;;16.97;;
7957;SDS011;4024;52.172;5.378;2023-08-06T07:37:05;19.13;;;17.07;;
7957;SDS011;4024;52.172;5.378;2023-08-06T07:39:31;19.43;;;15.87;;
7957;SDS011;4024;52.172;5.378;2023-08-06T07:41:56;18.20;;;15.93;;
7957;SDS011;4024;52.172;5.378;2023-08-06T07:44:22;21.23;;;17.30;;
7957;SDS011;4024;52.172;5.378;2023-08-06T07:46:48;23.67;;;16.77;;
7957;SDS011;4024;52.172;5.378;2023-08-06T07:49:14;19.70;;;17.40;;
7957;SDS011;4024;52.172;5.378;2023-08-06T07:51:40;18.93;;;16.83;;
7957;SDS011;4024;52.172;5.378;2023-08-06T07:54:06;19.33;;;16.77;;
7957;SDS011;4024;52.172;5.378;2023-08-06T07:56:32;18.30;;;16.50;;
7957;SDS011;4024;52.172;5.378;2023-08-06T07:58:58;20.07;;;16.30;;
7957;SDS011;4024;52.172;5.378;2023-08-06T08:01:23;20.20;;;15.87;;
7957;SDS011;4024;52.172;5.378;2023-08-06T08:03:49;19.37;;;16.93;;
7957;SDS011;4024;52.172;5.378;2023-08-06T08:06:14;19.13;;;16.77;;
7957;SDS011;4024;52.172;5.378;2023-08-06T08:08:40;16.67;;;15.00;;
7957;SDS011;4024;52.172;5.378;2023-08-06T08:11:06;19.87;;;14.93;;
7957;SDS011;4024;52.172;5.378;2023-08-06T08:13:31;18.67;;;16.67;;
7957;SDS011;4024;52.172;5.378;2023-08-06T08:16:00;16.10;;;14.20;;
7957;SDS011;4024;52.172;5.378;2023-08-06T08:18:26;10.07;;;9.17;;
7957;SDS011;4024;52.172;5.378;2023-08-06T08:20:52;10.43;;;8.20;;
7957;SDS011;4024;52.172;5.378;2023-08-06T08:23:18;7.73;;;6.20;;
7957;SDS011;4024;52.172;5.378;2023-08-06T08:25:44;5.13;;;4.50;;
7957;SDS011;4024;52.172;5.378;2023-08-06T08:28:09;4.37;;;3.93;;
7957;SDS011;4024;52.172;5.378;2023-08-06T08:30:35;3.70;;;3.40;;
7957;SDS011;4024;52.172;5.378;2023-08-06T08:33:00;3.93;;;3.53;;
7957;SDS011;4024;52.172;5.378;2023-08-06T08:35:26;3.60;;;3.00;;
7957;SDS011;4024;52.172;5.378;2023-08-06T08:37:51;3.00;;;2.77;;
7957;SDS011;4024;52.172;5.378;2023-08-06T08:40:17;2.70;;;2.50;;
7957;SDS011;4024;52.172;5.378;2023-08-06T08:42:43;3.50;;;3.07;;
7957;SDS011;4024;52.172;5.378;2023-08-06T08:45:13;3.27;;;2.50;;
7957;SDS011;4024;52.172;5.378;2023-08-06T08:47:40;2.70;;;2.50;;
7957;SDS011;4024;52.172;5.378;2023-08-06T08:50:08;2.70;;;2.50;;
7957;SDS011;4024;52.172;5.378;2023-08-06T08:52:35;4.20;;;2.83;;
7957;SDS011;4024;52.172;5.378;2023-08-06T08:55:01;3.43;;;2.73;;
7957;SDS011;4024;52.172;5.378;2023-08-06T08:57:27;3.93;;;2.57;;
7957;SDS011;4024;52.172;5.378;2023-08-06T08:59:53;2.70;;;2.50;;
7957;SDS011;4024;52.172;5.378;2023-08-06T09:02:18;3.27;;;2.63;;
7957;SDS011;4024;52.172;5.378;2023-08-06T09:04:46;3.73;;;2.70;;
7957;SDS011;4024;52.172;5.378;2023-08-06T09:07:13;3.27;;;2.93;;
7957;SDS011;4024;52.172;5.378;2023-08-06T09:09:43;3.17;;;2.60;;
7957;SDS011;4024;52.172;5.378;2023-08-06T09:12:12;2.77;;;2.57;;
7957;SDS011;4024;52.172;5.378;2023-08-06T09:14:40;3.47;;;2.97;;
7957;SDS011;4024;52.172;5.378;2023-08-06T09:17:06;3.30;;;2.90;;
7957;SDS011;4024;52.172;5.378;2023-08-06T09:19:32;3.20;;;3.00;;
7957;SDS011;4024;52.172;5.378;2023-08-06T09:21:58;3.30;;;3.00;;
7957;SDS011;4024;52.172;5.378;2023-08-06T09:24:24;3.83;;;3.43;;
7957;SDS011;4024;52.172;5.378;2023-08-06T09:26:51;3.87;;;3.47;;
7957;SDS011;4024;52.172;5.378;2023-08-06T09:29:16;3.70;;;3.40;;
7957;SDS011;4024;52.172;5.378;2023-08-06T09:31:43;4.37;;;3.97;;
7957;SDS011;4024;52.172;5.378;2023-08-06T09:34:11;5.00;;;4.00;;
7957;SDS011;4024;52.172;5.378;2023-08-06T09:36:50;4.10;;;3.80;;
7957;SDS011;4024;52.172;5.378;2023-08-06T09:39:17;4.37;;;3.90;;
7957;SDS011;4024;52.172;5.378;2023-08-06T09:41:44;5.53;;;4.00;;
7957;SDS011;4024;52.172;5.378;2023-08-06T09:44:20;5.00;;;4.13;;
7957;SDS011;4024;52.172;5.378;2023-08-06T09:47:08;4.50;;;4.10;;
7957;SDS011;4024;52.172;5.378;2023-08-06T09:52:10;5.60;;;4.80;;
7957;SDS011;4024;52.172;5.378;2023-08-06T09:54:37;4.80;;;4.30;;
7957;SDS011;4024;52.172;5.378;2023-08-06T09:57:03;5.63;;;5.13;;
7957;SDS011;4024;52.172;5.378;2023-08-06T09:59:30;6.03;;;5.43;;
7957;SDS011;4024;52.172;5.378;2023-08-06T10:01:56;6.13;;;5.07;;
7957;SDS011;4024;52.172;5.378;2023-08-06T10:04:24;6.10;;;5.57;;
7957;SDS011;4024;52.172;5.378;2023-08-06T10:06:49;6.43;;;5.63;;
7957;SDS011;4024;52.172;5.378;2023-08-06T10:09:16;6.70;;;6.00;;
7957;SDS011;4024;52.172;5.378;2023-08-06T10:11:42;6.80;;;6.10;;
7957;SDS011;4024;52.172;5.378;2023-08-06T10:14:13;6.97;;;5.80;;
7957;SDS011;4024;52.172;5.378;2023-08-06T10:16:40;7.33;;;5.57;;
7957;SDS011;4024;52.172;5.378;2023-08-06T10:19:07;6.07;;;5.27;;
7957;SDS011;4024;52.172;5.378;2023-08-06T10:21:35;7.20;;;5.47;;
7957;SDS011;4024;52.172;5.378;2023-08-06T10:24:02;8.50;;;5.80;;
7957;SDS011;4024;52.172;5.378;2023-08-06T10:26:35;6.70;;;5.77;;
7957;SDS011;4024;52.172;5.378;2023-08-06T10:29:01;7.27;;;5.53;;
7957;SDS011;4024;52.172;5.378;2023-08-06T10:31:53;7.70;;;5.83;;
7957;SDS011;4024;52.172;5.378;2023-08-06T10:34:27;9.37;;;6.33;;
7957;SDS011;4024;52.172;5.378;2023-08-06T10:37:24;6.93;;;5.40;;
7957;SDS011;4024;52.172;5.378;2023-08-06T10:39:59;7.03;;;5.33;;
7957;SDS011;4024;52.172;5.378;2023-08-06T10:42:29;6.13;;;4.93;;
7957;SDS011;4024;52.172;5.378;2023-08-06T10:45:11;6.23;;;5.37;;
7957;SDS011;4024;52.172;5.378;2023-08-06T10:47:41;7.83;;;5.40;;
7957;SDS011;4024;52.172;5.378;2023-08-06T10:50:07;6.67;;;4.87;;
7957;SDS011;4024;52.172;5.378;2023-08-06T10:52:35;5.87;;;4.87;;
7957;SDS011;4024;52.172;5.378;2023-08-06T10:55:01;5.70;;;4.80;;
7957;SDS011;4024;52.172;5.378;2023-08-06T10:57:27;6.00;;;4.57;;
7957;SDS011;4024;52.172;5.378;2023-08-06T10:59:53;5.53;;;4.20;;
7957;SDS011;4024;52.172;5.378;2023-08-06T11:02:18;5.17;;;3.70;;
7957;SDS011;4024;52.172;5.378;2023-08-06T11:04:44;5.60;;;4.23;;
7957;SDS011;4024;52.172;5.378;2023-08-06T11:07:10;8.13;;;4.23;;
7957;SDS011;4024;52.172;5.378;2023-08-06T11:09:35;6.67;;;4.10;;
7957;SDS011;4024;52.172;5.378;2023-08-06T11:12:02;6.37;;;3.80;;
7957;SDS011;4024;52.172;5.378;2023-08-06T11:14:30;5.43;;;4.17;;
7957;SDS011;4024;52.172;5.378;2023-08-06T11:16:55;4.87;;;3.87;;
7957;SDS011;4024;52.172;5.378;2023-08-06T11:19:22;4.67;;;3.40;;
7957;SDS011;4024;52.172;5.378;2023-08-06T11:21:49;3.97;;;3.30;;
7957;SDS011;4024;52.172;5.378;2023-08-06T11:24:16;3.70;;;2.90;;
7957;SDS011;4024;52.172;5.378;2023-08-06T11:26:42;3.70;;;3.10;;
7957;SDS011;4024;52.172;5.378;2023-08-06T11:29:09;4.20;;;3.17;;
7957;SDS011;4024;52.172;5.378;2023-08-06T11:31:35;7.03;;;3.27;;
7957;SDS011;4024;52.172;5.378;2023-08-06T11:34:01;4.47;;;3.30;;
7957;SDS011;4024;52.172;5.378;2023-08-06T11:38:56;4.77;;;3.33;;
7957;SDS011;4024;52.172;5.378;2023-08-06T11:41:23;3.87;;;3.43;;
7957;SDS011;4024;52.172;5.378;2023-08-06T11:43:48;4.07;;;2.97;;
7957;SDS011;4024;52.172;5.378;2023-08-06T11:46:14;3.60;;;3.00;;
7957;SDS011;4024;52.172;5.378;2023-08-06T11:48:55;4.30;;;3.33;;
7957;SDS011;4024;52.172;5.378;2023-08-06T11:51:23;4.73;;;2.90;;
7957;SDS011;4024;52.172;5.378;2023-08-06T11:53:51;5.03;;;2.90;;
7957;SDS011;4024;52.172;5.378;2023-08-06T11:56:20;3.77;;;2.93;;
7957;SDS011;4024;52.172;5.378;2023-08-06T11:58:45;3.63;;;2.87;;
7957;SDS011;4024;52.172;5.378;2023-08-06T12:01:11;4.80;;;3.00;;
7957;SDS011;4024;52.172;5.378;2023-08-06T12:03:41;3.63;;;2.80;;
7957;SDS011;4024;52.172;5.378;2023-08-06T12:06:07;3.83;;;3.07;;
7957;SDS011;4024;52.172;5.378;2023-08-06T12:08:32;4.43;;;2.70;;
7957;SDS011;4024;52.172;5.378;2023-08-06T12:10:58;3.57;;;2.80;;
7957;SDS011;4024;52.172;5.378;2023-08-06T12:13:24;3.93;;;2.80;;
7957;SDS011;4024;52.172;5.378;2023-08-06T12:15:50;2.80;;;2.33;;
7957;SDS011;4024;52.172;5.378;2023-08-06T12:18:18;2.93;;;2.70;;
7957;SDS011;4024;52.172;5.378;2023-08-06T12:20:43;3.70;;;2.40;;
7957;SDS011;4024;52.172;5.378;2023-08-06T12:23:09;2.77;;;2.30;;
7957;SDS011;4024;52.172;5.378;2023-08-06T12:25:35;3.03;;;2.53;;
7957;SDS011;4024;52.172;5.378;2023-08-06T12:28:00;5.13;;;2.40;;
7957;SDS011;4024;52.172;5.378;2023-08-06T12:30:26;3.23;;;2.60;;
7957;SDS011;4024;52.172;5.378;2023-08-06T12:32:51;4.10;;;2.60;;
7957;SDS011;4024;52.172;5.378;2023-08-06T12:35:17;2.63;;;2.20;;
7957;SDS011;4024;52.172;5.378;2023-08-06T12:37:42;4.07;;;2.37;;
7957;SDS011;4024;52.172;5.378;2023-08-06T12:40:09;3.03;;;2.47;;
7957;SDS011;4024;52.172;5.378;2023-08-06T12:42:35;3.20;;;2.60;;
7957;SDS011;4024;52.172;5.378;2023-08-06T12:45:00;3.33;;;2.80;;
7957;SDS011;4024;52.172;5.378;2023-08-06T12:47:26;3.73;;;2.60;;
7957;SDS011;4024;52.172;5.378;2023-08-06T12:49:51;2.50;;;2.30;;
7957;SDS011;4024;52.172;5.378;2023-08-06T12:52:17;3.47;;;2.73;;
7957;SDS011;4024;52.172;5.378;2023-08-06T12:54:44;3.07;;;2.60;;
7957;SDS011;4024;52.172;5.378;2023-08-06T12:57:11;4.43;;;2.90;;
7957;SDS011;4024;52.172;5.378;2023-08-06T12:59:37;3.83;;;2.60;;
7957;SDS011;4024;52.172;5.378;2023-08-06T13:02:02;4.60;;;3.07;;
7957;SDS011;4024;52.172;5.378;2023-08-06T13:04:28;3.80;;;3.20;;
7957;SDS011;4024;52.172;5.378;2023-08-06T13:06:54;4.60;;;2.63;;
7957;SDS011;4024;52.172;5.378;2023-08-06T13:09:20;4.77;;;3.00;;
7957;SDS011;4024;52.172;5.378;2023-08-06T13:11:45;4.67;;;3.17;;
7957;SDS011;4024;52.172;5.378;2023-08-06T13:14:14;4.43;;;3.00;;
7957;SDS011;4024;52.172;5.378;2023-08-06T13:16:41;4.03;;;2.97;;
7957;SDS011;4024;52.172;5.378;2023-08-06T13:19:08;5.70;;;3.23;;
7957;SDS011;4024;52.172;5.378;2023-08-06T13:24:05;3.50;;;3.13;;
7957;SDS011;4024;52.172;5.378;2023-08-06T13:26:31;4.60;;;3.43;;
7957;SDS011;4024;52.172;5.378;2023-08-06T13:28:57;3.43;;;2.90;;
7957;SDS011;4024;52.172;5.378;2023-08-06T13:31:24;3.50;;;3.17;;
7957;SDS011;4024;52.172;5.378;2023-08-06T13:33:50;3.17;;;2.83;;
7957;SDS011;4024;52.172;5.378;2023-08-06T13:36:16;3.33;;;3.03;;
7957;SDS011;4024;52.172;5.378;2023-08-06T13:38:42;4.53;;;3.23;;
7957;SDS011;4024;52.172;5.378;2023-08-06T13:41:08;4.30;;;2.93;;
7957;SDS011;4024;52.172;5.378;2023-08-06T13:43:33;4.07;;;3.10;;
7957;SDS011;4024;52.172;5.378;2023-08-06T13:45:59;4.47;;;3.33;;
7957;SDS011;4024;52.172;5.378;2023-08-06T13:48:25;4.63;;;2.90;;
7957;SDS011;4024;52.172;5.378;2023-08-06T13:50:50;3.83;;;3.10;;
7957;SDS011;4024;52.172;5.378;2023-08-06T13:53:16;5.80;;;2.93;;
7957;SDS011;4024;52.172;5.378;2023-08-06T13:55:41;6.27;;;3.30;;
7957;SDS011;4024;52.172;5.378;2023-08-06T13:58:07;3.53;;;3.20;;
7957;SDS011;4024;52.172;5.378;2023-08-06T14:00:33;3.50;;;3.20;;
7957;SDS011;4024;52.172;5.378;2023-08-06T14:03:00;3.93;;;2.87;;
7957;SDS011;4024;52.172;5.378;2023-08-06T14:05:26;3.67;;;3.13;;
7957;SDS011;4024;52.172;5.378;2023-08-06T14:07:52;3.33;;;2.60;;
7957;SDS011;4024;52.172;5.378;2023-08-06T14:10:17;3.30;;;2.90;;
7957;SDS011;4024;52.172;5.378;2023-08-06T14:12:43;3.13;;;2.77;;
7957;SDS011;4024;52.172;5.378;2023-08-06T14:15:09;3.10;;;2.80;;
7957;SDS011;4024;52.172;5.378;2023-08-06T14:17:35;4.00;;;2.60;;
7957;SDS011;4024;52.172;5.378;2023-08-06T14:20:01;3.90;;;3.00;;
7957;SDS011;4024;52.172;5.378;2023-08-06T14:22:28;3.40;;;2.73;;
7957;SDS011;4024;52.172;5.378;2023-08-06T14:24:55;3.27;;;2.70;;
7957;SDS011;4024;52.172;5.378;2023-08-06T14:27:21;3.37;;;2.80;;
7957;SDS011;4024;52.172;5.378;2023-08-06T14:29:47;3.30;;;2.50;;
7957;SDS011;4024;52.172;5.378;2023-08-06T14:32:12;3.00;;;2.70;;
7957;SDS011;4024;52.172;5.378;2023-08-06T14:34:38;3.93;;;2.87;;
7957;SDS011;4024;52.172;5.378;2023-08-06T14:37:03;4.10;;;2.63;;
7957;SDS011;4024;52.172;5.378;2023-08-06T14:39:29;3.13;;;2.80;;
7957;SDS011;4024;52.172;5.378;2023-08-06T14:41:55;3.07;;;2.77;;
7957;SDS011;4024;52.172;5.378;2023-08-06T14:44:21;10.30;;;3.13;;
7957;SDS011;4024;52.172;5.378;2023-08-06T14:46:46;3.20;;;2.90;;
7957;SDS011;4024;52.172;5.378;2023-08-06T14:49:12;3.03;;;2.53;;
7957;SDS011;4024;52.172;5.378;2023-08-06T14:51:37;3.77;;;2.70;;
7957;SDS011;4024;52.172;5.378;2023-08-06T14:54:04;4.90;;;3.00;;
7957;SDS011;4024;52.172;5.378;2023-08-06T14:56:29;2.90;;;2.60;;
7957;SDS011;4024;52.172;5.378;2023-08-06T14:58:55;2.60;;;2.30;;
7957;SDS011;4024;52.172;5.378;2023-08-06T15:01:20;4.30;;;2.30;;
7957;SDS011;4024;52.172;5.378;2023-08-06T15:03:46;4.67;;;2.67;;
7957;SDS011;4024;52.172;5.378;2023-08-06T15:06:11;4.40;;;2.60;;
7957;SDS011;4024;52.172;5.378;2023-08-06T15:08:37;2.93;;;2.40;;
7957;SDS011;4024;52.172;5.378;2023-08-06T15:11:03;3.97;;;2.43;;